Terminal Aerodrome Forecast
Issued by NWS Midland/Odessa, TX

Home | Current Version | Previous Version | Text Only | Print | Product List | Glossary On
Versions: 1 2 3 4 5 6 7 8 9 10 11 12 13 14 15 16 17 18 19 20 21 22
000
FTUS44 KMAF 291800 AAA
TAFMAF
TAF AMD
KMAF 291820Z 2918/3018 12008KT P6SM SCT050 SCT250
      TEMPO 2918/2919 BKN035
     FM300100 11006KT P6SM FEW200
     FM301200 18006KT P6SM BKN250
     FM301600 14008KT P6SM SCT045 SCT250=

USA.gov is the U.S. government's official web portal to all federal, state and local government web resources and services.